Time;durP1;ratioP1;P1;durP2;ratioP2;P2;SDS_P1;SDS_P2;PMS_P1;PMS_P2;Temp;Humidity;BMP_temperature;BMP_pressure;BME280_temperature;BME280_humidity;BME280_pressure;Samples;Min_cycle;Max_cycle;Signal;HPM_P1;HPM_P2
2023/02/24 00:03:05;;;;;;;21.90;14.77;;;8.00;99.90;;;-141.84;86.14;19074.13;5047988;28;20589;-58
2023/02/24 00:05:37;;;;;;;21.90;15.30;;;8.00;99.90;;;-141.84;86.16;19078.19;5049896;28;20219;-56
2023/02/24 00:08:06;;;;;;;23.13;16.00;;;8.00;99.90;;;-141.84;86.25;19049.75;5052456;28;20236;-56
2023/02/24 00:10:36;;;;;;;22.73;16.23;;;8.00;99.90;;;-141.84;86.14;19078.19;5053485;28;20228;-57
2023/02/24 00:13:04;;;;;;;20.17;14.37;;;7.90;99.90;;;-141.84;85.26;19070.06;5053435;28;20680;-57
2023/02/24 00:15:32;;;;;;;18.67;14.07;;;7.90;99.90;;;-141.84;85.50;19070.06;5053205;28;20592;-59
2023/02/24 00:18:05;;;;;;;20.50;14.60;;;7.90;99.90;;;-141.84;85.09;19088.34;5053560;28;20200;-58
2023/02/24 00:20:36;;;;;;;21.27;13.60;;;7.90;99.90;;;-141.84;84.49;19090.38;5053624;28;20210;-63
2023/02/24 00:23:04;;;;;;;23.93;14.67;;;7.90;99.90;;;-141.84;84.43;19072.09;5053130;28;20252;-56
2023/02/24 00:25:32;;;;;;;18.83;13.90;;;7.80;99.90;;;-141.84;84.92;19051.78;5053058;28;20228;-57
2023/02/24 00:28:00;;;;;;;22.40;14.20;;;7.80;99.90;;;-141.84;85.02;19090.38;5052945;28;20225;-58
2023/02/24 00:30:31;;;;;;;19.57;13.97;;;7.80;99.90;;;-141.84;84.47;19084.28;5052779;28;20221;-56
2023/02/24 00:33:01;;;;;;;19.20;13.73;;;7.80;99.90;;;-141.84;84.60;19049.75;5053122;28;20186;-57
2023/02/24 00:35:29;;;;;;;20.77;14.77;;;7.80;99.90;;;-141.84;84.20;19059.91;5052642;28;20259;-57
2023/02/24 00:37:59;;;;;;;21.00;14.40;;;7.70;99.90;;;-141.84;83.72;19080.22;5053164;28;20236;-57
2023/02/24 00:40:29;;;;;;;22.30;14.33;;;7.70;99.90;;;-141.84;84.51;19049.75;5052783;28;20713;-57
2023/02/24 00:42:57;;;;;;;20.33;14.33;;;7.70;99.90;;;-141.84;84.32;19090.38;5052902;28;20314;-58
2023/02/24 00:45:29;;;;;;;21.70;13.53;;;7.70;99.90;;;-141.84;84.42;19082.25;5052786;28;20205;-56
2023/02/24 00:47:57;;;;;;;22.40;14.63;;;7.60;99.90;;;-141.84;84.44;19078.19;5052621;28;20213;-56
2023/02/24 00:50:26;;;;;;;23.60;13.80;;;7.60;99.90;;;-141.84;84.37;19078.19;5052322;28;20654;-57
2023/02/24 00:52:54;;;;;;;23.13;15.07;;;7.60;99.90;;;-141.84;84.13;19068.03;5052524;28;20232;-58
2023/02/24 00:55:26;;;;;;;25.43;15.00;;;7.60;99.90;;;-141.84;84.55;19049.75;5052338;28;20221;-55
2023/02/24 00:57:55;;;;;;;25.77;14.93;;;7.60;99.90;;;-141.84;84.40;19092.41;5052789;28;20225;-57
2023/02/24 01:00:23;;;;;;;27.33;14.90;;;7.70;99.90;;;-141.84;83.77;19106.66;5052117;28;20575;-56
2023/02/24 01:02:51;;;;;;;28.77;15.10;;;7.70;99.90;;;-141.84;83.15;19066.00;5052874;28;20202;-58
2023/02/24 01:05:20;;;;;;;30.27;15.47;;;7.60;99.90;;;-141.84;83.13;19098.50;5052550;28;20233;-56
2023/02/24 01:07:48;;;;;;;28.97;15.23;;;7.60;99.90;;;-141.84;83.99;19068.03;5052574;28;20228;-58
2023/02/24 01:10:19;;;;;;;28.03;14.67;;;7.50;99.90;;;-141.84;84.52;19045.69;5051876;28;20237;-57
2023/02/24 01:12:48;;;;;;;30.17;15.87;;;7.50;99.90;;;-141.84;85.28;19021.31;5052329;28;20229;-58
2023/02/24 01:15:21;;;;;;;29.17;14.77;;;7.40;99.90;;;-141.84;84.83;19053.81;5052211;28;20205;-58
2023/02/24 01:17:49;;;;;;;29.63;15.53;;;7.40;99.90;;;-141.84;85.20;19025.38;5051816;28;20202;-58
2023/02/24 01:20:18;;;;;;;38.00;15.73;;;7.40;99.90;;;-141.84;85.70;19025.38;5051294;28;20233;-58
2023/02/24 01:22:51;;;;;;;34.27;15.47;;;7.30;99.90;;;-141.84;86.29;18992.84;5052110;28;20260;-57
2023/02/24 01:25:20;;;;;;;34.80;15.67;;;7.20;99.90;;;-141.84;86.16;19021.31;5051807;28;20732;-56
2023/02/24 01:27:51;;;;;;;36.53;15.97;;;7.20;99.90;;;-141.84;86.00;19037.56;5051973;28;20275;-56
2023/02/24 01:30:19;;;;;;;32.77;14.17;;;7.20;99.90;;;-141.84;85.56;19015.19;5051865;28;20583;-57
2023/02/24 01:32:47;;;;;;;30.40;14.80;;;7.20;99.90;;;-141.84;86.47;19027.41;5052048;28;20293;-59
2023/02/24 01:35:16;;;;;;;34.10;15.00;;;7.10;99.90;;;-141.84;87.17;19021.31;5051585;28;20607;-56
2023/02/24 01:37:45;;;;;;;36.07;16.30;;;7.20;99.90;;;-141.84;87.06;19017.25;5051523;28;20237;-59
2023/02/24 01:40:19;;;;;;;33.70;14.20;;;7.10;99.90;;;-141.84;86.32;19037.56;5051607;28;20235;-56
2023/02/24 01:42:51;;;;;;;36.87;15.70;;;7.10;99.90;;;-141.84;86.89;19003.00;5051778;28;20279;-56
2023/02/24 01:45:24;;;;;;;32.80;14.30;;;7.10;99.90;;;-141.84;87.03;19025.38;5051781;28;20194;-56
2023/02/24 01:47:57;;;;;;;31.60;14.40;;;7.20;99.90;;;-141.84;87.21;18996.91;5051416;28;20197;-57
2023/02/24 01:50:27;;;;;;;32.27;14.33;;;7.10;99.90;;;-141.84;87.17;19015.19;5051699;28;20312;-60
2023/02/24 01:53:00;;;;;;;31.87;15.00;;;7.10;99.90;;;-141.84;87.49;19023.34;5051438;28;20229;-59
2023/02/24 01:55:35;;;;;;;32.30;14.90;;;7.10;99.90;;;-141.84;87.97;18988.78;5051494;28;20229;-57
2023/02/24 01:58:14;;;;;;;32.87;14.63;;;7.10;99.90;;;-141.84;87.53;18976.59;5051147;28;20732;-57
2023/02/24 02:00:46;;;;;;;35.77;15.47;;;7.10;99.90;;;-141.84;87.37;19017.25;5051393;28;20598;-61
2023/02/24 02:03:25;;;;;;;35.37;15.40;;;7.10;99.90;;;-141.84;87.37;18976.59;5050735;28;20657;-57
2023/02/24 02:05:59;;;;;;;32.77;14.00;;;7.10;99.90;;;-141.84;87.63;18980.66;5051632;28;20645;-57
2023/02/24 02:08:29;;;;;;;34.37;15.57;;;7.10;99.90;;;-141.84;87.79;19005.03;5051463;28;20583;-57
2023/02/24 02:11:05;;;;;;;34.93;15.70;;;7.10;99.90;;;-141.84;87.13;19023.34;5051292;28;20244;-56
2023/02/24 02:13:39;;;;;;;33.07;14.97;;;7.10;99.90;;;-141.84;87.01;18984.72;5051383;28;20232;-57
2023/02/24 02:16:29;;;;;;;26.93;11.10;;;7.10;99.90;;;-141.84;85.72;19047.72;5051236;28;20264;-55
2023/02/24 02:19:28;;;;;;;18.57;8.30;;;7.10;99.90;;;-141.84;84.61;18988.78;5050784;28;20221;-59
2023/02/24 02:22:15;;;;;;;11.53;5.83;;;7.00;99.90;;;-141.84;82.58;19005.03;5050959;28;20232;-57
2023/02/24 02:24:54;;;;;;;11.47;4.80;;;6.70;99.90;;;-141.84;80.99;18980.66;5051252;28;20732;-55
2023/02/24 02:28:06;;;;;;;11.87;4.57;;;6.50;99.90;;;-141.84;81.06;18972.53;5051076;28;20193;-57
2023/02/24 02:31:18;;;;;;;9.30;3.80;;;6.40;99.90;;;-141.84;80.32;18976.59;5050984;28;20243;-55
2023/02/24 02:34:10;;;;;;;12.00;3.63;;;6.20;99.90;;;-141.84;80.18;18984.72;5050402;28;20729;-56
2023/02/24 02:36:58;;;;;;;9.10;3.60;;;6.10;99.90;;;-141.84;80.02;18966.44;5050650;28;20641;-57
2023/02/24 02:39:42;;;;;;;10.53;3.47;;;5.90;99.90;;;-141.84;81.50;18972.53;5050831;28;20562;-57
2023/02/24 02:42:25;;;;;;;13.03;3.97;;;5.90;99.90;;;-141.84;81.25;18958.31;5050735;28;20211;-57
2023/02/24 02:45:06;;;;;;;12.47;3.70;;;5.80;99.90;;;-141.84;80.19;18990.81;5051135;28;20197;-55
2023/02/24 02:47:42;;;;;;;15.77;4.47;;;5.70;99.90;;;-141.84;79.91;18982.69;5050430;28;20217;-56
2023/02/24 02:50:19;;;;;;;11.43;3.33;;;5.60;99.90;;;-141.84;80.53;18964.41;5050120;28;20225;-57
2023/02/24 02:52:55;;;;;;;11.00;4.30;;;5.60;99.90;;;-141.84;80.95;18931.91;5050118;28;20306;-58
2023/02/24 02:55:35;;;;;;;15.17;4.20;;;5.50;99.90;;;-141.84;81.73;18940.03;5050338;28;20231;-57
2023/02/24 02:58:09;;;;;;;11.77;4.17;;;5.50;99.90;;;-141.84;82.09;18956.28;5050149;28;20617;-55
2023/02/24 03:00:48;;;;;;;11.63;4.10;;;5.40;99.90;;;-141.84;81.98;18954.25;5050289;28;20646;-58
2023/02/24 03:03:19;;;;;;;11.13;3.93;;;5.40;99.90;;;-141.84;81.68;18911.56;5049895;28;20193;-56
2023/02/24 03:05:56;;;;;;;14.83;3.87;;;5.40;99.90;;;-141.84;81.61;18954.25;5050921;28;20195;-54
2023/02/24 03:08:33;;;;;;;13.73;4.07;;;5.30;99.90;;;-141.84;82.03;18935.97;5050216;28;20220;-58
2023/02/24 03:11:04;;;;;;;15.90;3.80;;;5.30;99.90;;;-141.84;83.00;18948.16;5049975;28;20240;-56
2023/02/24 03:13:39;;;;;;;9.80;3.77;;;5.30;99.90;;;-141.84;82.99;18968.47;5049640;28;20239;-58
2023/02/24 03:16:12;;;;;;;13.70;3.87;;;5.30;99.90;;;-141.84;83.38;18927.84;5049868;28;20229;-58
2023/02/24 03:18:49;;;;;;;14.03;3.70;;;5.40;99.90;;;-141.84;83.72;18925.81;5049820;28;20237;-56
2023/02/24 03:21:29;;;;;;;15.00;4.73;;;5.40;99.90;;;-141.84;83.44;18948.16;5050019;28;20185;-56
2023/02/24 03:23:58;;;;;;;17.27;6.00;;;5.40;99.90;;;-141.84;83.11;18940.03;5050203;28;20672;-55
2023/02/24 03:26:32;;;;;;;15.70;4.57;;;5.30;99.90;;;-141.84;83.22;18940.03;5049807;28;20247;-58
2023/02/24 03:29:16;;;;;;;14.20;4.70;;;5.30;99.90;;;-141.84;81.77;18940.03;5049555;28;20221;-58
2023/02/24 03:31:52;;;;;;;17.70;4.47;;;5.30;99.90;;;-141.84;81.41;18948.16;5049568;28;20233;-56
2023/02/24 03:34:30;;;;;;;16.50;4.77;;;5.30;99.90;;;-141.84;82.48;18929.88;5049434;28;20722;-58
2023/02/24 03:37:00;;;;;;;16.23;5.00;;;5.30;99.90;;;-141.84;82.80;18942.06;5049587;28;20227;-56
2023/02/24 03:39:29;;;;;;;14.03;4.67;;;5.30;99.90;;;-141.84;82.79;18911.56;5049580;28;20224;-58
2023/02/24 03:42:06;;;;;;;17.67;4.67;;;5.30;99.90;;;-141.84;83.39;18923.78;5049803;28;20208;-58
2023/02/24 03:44:34;;;;;;;16.20;4.13;;;5.20;99.90;;;-141.84;83.74;18938.00;5049933;28;20239;-56
2023/02/24 03:47:02;;;;;;;15.80;4.77;;;5.20;99.90;;;-141.84;83.45;18923.78;5049591;28;20240;-55
2023/02/24 03:49:31;;;;;;;15.37;5.23;;;5.30;99.90;;;-141.84;81.77;18907.50;5049216;28;20596;-57
2023/02/24 03:52:21;;;;;;;15.13;4.60;;;5.30;99.90;;;-141.84;81.55;18931.91;5049602;28;20248;-57
2023/02/24 03:55:08;;;;;;;13.10;3.70;;;5.20;99.90;;;-141.84;79.61;18940.03;5049577;28;20232;-56
2023/02/24 03:57:58;;;;;;;13.30;3.77;;;5.20;99.90;;;-141.84;80.16;18952.22;5049562;28;20746;-57
2023/02/24 04:00:39;;;;;;;13.93;4.97;;;5.20;99.90;;;-141.84;79.61;18927.84;5049563;28;20241;-55
2023/02/24 04:03:24;;;;;;;11.97;3.67;;;5.10;99.90;;;-141.84;80.62;18944.09;5049558;28;20192;-59
2023/02/24 04:06:10;;;;;;;13.87;3.37;;;5.20;99.90;;;-141.84;80.49;18935.97;5050080;28;20576;-59
2023/02/24 04:08:47;;;;;;;15.40;3.83;;;5.20;99.90;;;-141.84;80.83;18942.06;5049604;28;20211;-57
2023/02/24 04:11:27;;;;;;;18.13;4.00;;;5.20;99.90;;;-141.84;80.94;18952.22;5049289;28;20225;-58
2023/02/24 04:14:05;;;;;;;17.73;3.90;;;5.20;99.90;;;-141.84;79.46;18988.78;5049318;28;20256;-57
2023/02/24 04:16:48;;;;;;;14.77;3.63;;;5.20;99.90;;;-141.84;78.85;18923.78;5049165;28;20244;-56
2023/02/24 04:19:21;;;;;;;15.83;3.83;;;5.20;99.90;;;-141.84;78.34;18984.72;5048993;28;20588;-58
2023/02/24 04:21:50;;;;;;;14.47;3.70;;;5.20;99.90;;;-141.84;78.27;18950.19;5049524;28;20441;-57
2023/02/24 04:24:27;;;;;;;13.07;3.63;;;5.30;99.90;;;-141.84;77.63;18990.81;5048880;28;20464;-56
2023/02/24 04:26:59;;;;;;;10.23;3.70;;;5.30;99.90;;;-141.84;78.10;18976.59;5049914;28;20189;-57
2023/02/24 04:29:34;;;;;;;16.20;3.77;;;5.20;99.90;;;-141.84;79.12;18954.25;5048912;28;20233;-55
2023/02/24 04:32:09;;;;;;;12.20;3.07;;;5.20;99.90;;;-141.84;77.95;18964.41;5048983;28;20700;-53
2023/02/24 04:34:39;;;;;;;11.70;3.53;;;5.20;99.90;;;-141.84;78.76;18933.94;5049046;28;20236;-59
2023/02/24 04:37:07;;;;;;;13.47;3.17;;;5.10;99.90;;;-141.84;78.91;18966.44;5049419;28;20262;-54
2023/02/24 04:39:37;;;;;;;12.50;3.07;;;5.20;99.90;;;-141.84;77.93;18982.69;5049003;28;20603;-56
2023/02/24 04:42:06;;;;;;;12.23;3.13;;;5.20;99.90;;;-141.84;77.88;18990.81;5050338;28;20211;-58
2023/02/24 04:44:35;;;;;;;16.50;4.03;;;5.20;99.90;;;-141.84;79.61;18954.25;5049317;28;20707;-57
2023/02/24 04:47:03;;;;;;;13.37;3.27;;;5.20;99.90;;;-141.84;80.00;18956.28;5048849;28;20232;-56
2023/02/24 04:49:32;;;;;;;12.00;3.73;;;5.20;99.90;;;-141.84;79.19;18950.19;5028907;28;20229;-57
2023/02/24 04:52:00;;;;;;;15.67;3.03;;;5.20;99.90;;;-141.84;76.19;18952.22;5029342;28;20231;-56
2023/02/24 04:54:29;;;;;;;14.97;2.90;;;5.10;99.90;;;-141.84;75.29;18968.47;5031066;28;20229;-58
2023/02/24 04:56:58;;;;;;;10.43;2.90;;;5.10;99.90;;;-141.84;75.98;18962.38;5033222;28;20716;-56
2023/02/24 04:59:28;;;;;;;12.03;3.33;;;5.10;99.90;;;-141.84;75.55;18968.47;5032593;28;20248;-58
2023/02/24 05:02:00;;;;;;;11.53;2.90;;;5.00;99.90;;;-141.84;75.49;18966.44;5032445;28;20229;-56
2023/02/24 05:04:30;;;;;;;10.03;2.90;;;5.00;99.90;;;-141.84;75.22;18942.06;5032322;28;20249;-57
2023/02/24 05:06:59;;;;;;;10.77;2.67;;;5.00;99.90;;;-141.84;76.61;18948.16;5032678;28;20227;-56
2023/02/24 05:09:28;;;;;;;8.80;2.47;;;4.90;99.90;;;-141.84;77.24;18964.41;5032369;28;20237;-57
2023/02/24 05:11:59;;;;;;;12.13;2.80;;;4.90;99.90;;;-141.84;77.21;18944.09;5032757;28;20823;-58
2023/02/24 05:14:27;;;;;;;12.63;2.63;;;4.90;99.90;;;-141.84;75.07;18956.28;5032226;28;20743;-58
2023/02/24 05:16:59;;;;;;;11.50;2.43;;;4.80;99.90;;;-141.84;75.00;19009.09;5032027;28;20244;-55
2023/02/24 05:22:16;;;;;;;10.53;2.70;;;4.90;99.90;;;-141.84;76.07;18948.16;5052139;28;20251;-56
2023/02/24 05:24:46;;;;;;;12.10;3.13;;;4.90;99.90;;;-141.84;77.15;18994.88;5052123;28;20252;-57
2023/02/24 05:27:16;;;;;;;9.77;2.60;;;4.90;99.90;;;-141.84;77.07;18970.50;5052148;28;20184;-58
2023/02/24 05:29:44;;;;;;;12.30;3.20;;;4.90;99.90;;;-141.84;75.94;18958.31;5052226;28;20718;-56
2023/02/24 05:32:15;;;;;;;11.37;2.70;;;4.90;99.90;;;-141.84;75.12;18980.66;5051697;28;20341;-55
2023/02/24 05:34:43;;;;;;;13.00;3.17;;;4.90;99.90;;;-141.84;76.25;18978.63;5051552;28;20229;-58
2023/02/24 05:37:15;;;;;;;13.77;3.03;;;5.00;99.90;;;-141.84;75.95;18980.66;5051778;28;20236;-57
2023/02/24 05:39:43;;;;;;;6.97;2.73;;;5.00;99.90;;;-141.84;76.33;18978.63;5051757;28;20246;-59
2023/02/24 05:42:11;;;;;;;15.47;3.30;;;5.00;99.90;;;-141.84;75.47;18984.72;5051793;28;20644;-57
2023/02/24 05:44:41;;;;;;;10.33;2.80;;;5.00;99.90;;;-141.84;74.31;18976.59;5051919;28;20211;-57
2023/02/24 05:47:09;;;;;;;7.97;2.90;;;5.00;99.90;;;-141.84;73.94;18976.59;5051307;28;20236;-58
2023/02/24 05:49:38;;;;;;;10.70;3.00;;;4.90;99.90;;;-141.84;75.08;19005.03;5051306;28;20233;-57
2023/02/24 05:52:08;;;;;;;8.43;2.87;;;4.90;99.90;;;-141.84;75.18;18994.88;5051607;28;20574;-58
2023/02/24 05:54:39;;;;;;;10.53;2.80;;;5.00;99.90;;;-141.84;75.52;18948.16;5051683;28;20229;-56
2023/02/24 05:57:11;;;;;;;7.27;2.27;;;5.00;99.90;;;-141.84;75.45;18996.91;5051253;28;20189;-57
2023/02/24 05:59:43;;;;;;;7.80;2.37;;;5.00;99.90;;;-141.84;74.54;18992.84;5051986;28;20193;-58
2023/02/24 06:02:15;;;;;;;17.87;3.80;;;4.90;99.90;;;-141.84;74.30;19000.97;5051011;28;20312;-56
2023/02/24 06:04:49;;;;;;;10.67;2.90;;;5.00;99.90;;;-141.84;74.26;18986.75;5050901;28;20275;-58
2023/02/24 06:07:21;;;;;;;12.13;2.90;;;5.00;99.90;;;-141.84;74.21;18956.28;5051394;28;20230;-60
2023/02/24 06:09:53;;;;;;;10.37;3.40;;;5.00;99.90;;;-141.84;74.77;19031.47;5051207;28;20221;-58
2023/02/24 06:12:24;;;;;;;9.60;2.90;;;5.00;99.90;;;-141.84;73.39;19005.03;5051444;28;20228;-59
2023/02/24 06:14:54;;;;;;;14.03;3.20;;;5.10;99.90;;;-141.84;72.74;19005.03;5051743;28;20565;-55
2023/02/24 06:17:23;;;;;;;6.73;2.80;;;5.00;99.90;;;-141.84;73.34;18988.78;5050564;28;20290;-56
2023/02/24 06:19:53;;;;;;;9.13;3.03;;;5.00;99.90;;;-141.84;73.93;19007.06;5050883;28;20247;-58
2023/02/24 06:22:25;;;;;;;14.70;2.90;;;5.00;99.90;;;-141.84;74.81;19007.06;5050878;28;20225;-57
2023/02/24 06:24:55;;;;;;;9.03;2.73;;;5.00;99.90;;;-141.84;73.20;19021.31;5051260;28;20228;-56
2023/02/24 06:27:24;;;;;;;10.37;2.93;;;5.00;99.90;;;-141.84;73.90;19009.09;5050751;28;20194;-54
2023/02/24 06:29:55;;;;;;;7.40;2.53;;;5.00;99.90;;;-141.84;72.63;18978.63;5051469;28;20228;-57
2023/02/24 06:32:25;;;;;;;11.73;3.30;;;5.00;99.90;;;-141.84;72.98;19009.09;5050163;28;20232;-57
2023/02/24 06:34:56;;;;;;;12.30;2.87;;;5.00;99.90;;;-141.84;73.50;19019.28;5050825;28;20253;-56
2023/02/24 06:37:24;;;;;;;13.17;2.87;;;5.00;99.90;;;-141.84;73.96;19013.16;5050597;28;20234;-57
2023/02/24 06:39:52;;;;;;;9.23;3.20;;;5.00;99.90;;;-141.84;74.27;18996.91;5050731;28;20241;-55
2023/02/24 06:42:20;;;;;;;10.30;3.00;;;5.00;99.90;;;-141.84;73.01;19015.19;5050389;28;20197;-57
2023/02/24 06:44:49;;;;;;;11.27;3.67;;;5.00;99.90;;;-141.84;72.62;18990.81;5050970;28;20216;-56
2023/02/24 06:47:18;;;;;;;7.97;2.60;;;5.10;99.90;;;-141.84;72.15;19053.81;5049996;28;20232;-55
2023/02/24 06:49:47;;;;;;;9.17;2.97;;;5.10;99.90;;;-141.84;71.18;19029.44;5049981;28;20590;-55
2023/02/24 06:52:17;;;;;;;18.37;3.03;;;5.10;99.90;;;-141.84;71.85;19059.91;5050221;28;20229;-54
2023/02/24 06:54:51;;;;;;;10.40;3.17;;;5.10;99.90;;;-141.84;71.00;19057.88;5050458;28;20274;-55
2023/02/24 06:57:19;;;;;;;10.17;2.53;;;5.20;99.90;;;-141.84;71.20;19039.59;5050004;28;20192;-55
2023/02/24 06:59:47;;;;;;;14.67;3.00;;;5.20;99.90;;;-141.84;71.01;19029.44;5050540;28;20300;-55
2023/02/24 07:02:16;;;;;;;10.23;2.90;;;5.20;99.90;;;-141.84;71.46;19023.34;5049878;28;20228;-57
2023/02/24 07:04:46;;;;;;;8.80;2.80;;;5.30;99.90;;;-141.84;70.65;19019.28;5049966;28;20225;-57
2023/02/24 07:07:16;;;;;;;8.57;2.43;;;5.20;99.90;;;-141.84;71.28;19041.63;5049869;28;20729;-57
2023/02/24 07:09:44;;;;;;;13.40;3.07;;;5.20;99.90;;;-141.84;70.31;19063.97;5049939;28;20232;-58
2023/02/24 07:12:19;;;;;;;7.80;3.40;;;5.30;99.90;;;-141.84;71.24;19035.53;5049920;28;20257;-58
2023/02/24 07:14:49;;;;;;;8.60;3.10;;;5.40;99.90;;;-141.84;71.71;19053.81;5050379;28;20613;-58
2023/02/24 07:17:18;;;;;;;11.53;3.10;;;5.40;99.90;;;-141.84;71.41;19045.69;5048711;28;20328;-57
2023/02/24 07:19:48;;;;;;;10.13;2.73;;;5.50;99.90;;;-141.84;71.67;19043.66;5049668;28;20232;-55
2023/02/24 07:22:23;;;;;;;12.13;3.33;;;5.50;99.90;;;-141.84;72.04;19057.88;5049907;28;20229;-56
2023/02/24 07:24:59;;;;;;;12.17;3.27;;;5.50;99.90;;;-141.84;72.40;19055.84;5049926;28;20290;-57
2023/02/24 07:27:27;;;;;;;12.13;3.30;;;5.50;99.90;;;-141.84;72.65;19096.47;5049778;28;20263;-57
2023/02/24 07:29:55;;;;;;;9.90;3.20;;;5.50;99.90;;;-141.84;72.34;19070.06;5050343;28;20214;-56
2023/02/24 07:32:24;;;;;;;11.70;3.70;;;5.50;99.90;;;-141.84;70.97;19090.38;5049330;28;20229;-57
2023/02/24 07:34:53;;;;;;;12.53;3.30;;;5.50;99.90;;;-141.84;71.21;19084.28;5049512;28;20239;-56
2023/02/24 07:37:23;;;;;;;10.53;3.87;;;5.50;99.90;;;-141.84;70.77;19070.06;5049654;28;20251;-56
2023/02/24 07:39:51;;;;;;;11.63;3.40;;;5.50;99.90;;;-141.84;71.64;19055.84;5049735;28;20308;-58
2023/02/24 07:42:20;;;;;;;10.07;3.40;;;5.60;99.90;;;-141.84;70.80;19080.22;5049504;28;20201;-55
2023/02/24 07:44:48;;;;;;;7.20;3.17;;;5.70;99.90;;;-141.84;70.56;19080.22;5049668;28;20204;-57
2023/02/24 07:47:16;;;;;;;12.30;3.50;;;5.80;99.90;;;-141.84;69.92;19072.09;5049190;28;20323;-56
2023/02/24 07:49:45;;;;;;;12.33;3.40;;;5.70;99.90;;;-141.84;70.67;19102.56;5049161;28;20224;-57
2023/02/24 07:52:14;;;;;;;11.83;4.03;;;5.70;99.90;;;-141.84;70.61;19074.13;5048570;28;20229;-57
2023/02/24 07:54:43;;;;;;;10.13;3.37;;;5.70;99.90;;;-141.84;70.27;19086.31;5049610;28;20364;-56
2023/02/24 07:57:12;;;;;;;10.70;3.50;;;5.80;99.90;;;-141.84;70.59;19118.84;5049558;28;20211;-58
2023/02/24 07:59:44;;;;;;;12.63;4.07;;;5.70;99.90;;;-141.84;70.05;19096.47;5050269;28;20543;-55
2023/02/24 08:02:12;;;;;;;9.13;3.67;;;5.90;99.90;;;-141.84;69.36;19086.31;5049091;28;20260;-55
2023/02/24 08:04:47;;;;;;;8.63;3.13;;;5.90;99.90;;;-141.84;69.45;19110.72;5049423;28;20231;-56
2023/02/24 08:07:22;;;;;;;13.00;3.53;;;6.00;99.90;;;-141.84;69.50;19122.91;5049206;28;20336;-56
2023/02/24 08:10:12;;;;;;;9.87;3.90;;;6.00;99.90;;;-141.84;69.18;19137.13;5049679;28;20229;-57
2023/02/24 08:12:42;;;;;;;12.63;3.33;;;6.10;99.90;;;-141.84;67.39;19155.41;5049352;28;20233;-57
2023/02/24 08:15:22;;;;;;;12.30;3.80;;;6.40;99.90;;;-141.84;66.33;19196.06;5049365;28;20213;-57
2023/02/24 08:17:53;;;;;;;9.97;3.70;;;6.40;99.90;;;-141.84;65.91;19210.28;5049547;28;20204;-55
2023/02/24 08:20:28;;;;;;;6.13;3.17;;;6.60;99.90;;;-141.84;66.11;19183.84;5049109;28;20230;-57
2023/02/24 08:22:57;;;;;;;12.73;3.53;;;6.60;99.90;;;-141.84;66.58;19200.13;5048986;28;20225;-55
2023/02/24 08:25:35;;;;;;;14.37;3.63;;;6.80;99.90;;;-141.84;65.87;19220.44;5049280;28;20229;-56
2023/02/24 08:28:10;;;;;;;13.87;3.73;;;6.90;99.90;;;-141.84;65.87;19242.78;5050199;28;20221;-55
2023/02/24 08:30:43;;;;;;;16.67;4.23;;;7.00;99.90;;;-141.84;64.90;19265.13;5053263;28;20221;-58
2023/02/24 08:33:19;;;;;;;13.00;3.93;;;7.00;99.90;;;-141.84;64.71;19263.09;5052888;28;20315;-57
2023/02/24 08:35:59;;;;;;;9.63;3.87;;;7.20;99.90;;;-141.84;63.23;19311.88;5053348;28;20185;-56
2023/02/24 08:38:40;;;;;;;13.47;3.77;;;7.20;99.90;;;-141.84;64.16;19295.63;5052798;28;20598;-57
2023/02/24 08:41:18;;;;;;;11.67;3.70;;;7.30;99.90;;;-141.84;63.49;19293.59;5052768;28;20748;-56
2023/02/24 08:43:49;;;;;;;10.40;3.40;;;7.40;99.90;;;-141.84;63.85;19283.44;5052867;28;20240;-55
2023/02/24 08:46:24;;;;;;;13.83;4.63;;;7.30;99.90;;;-141.84;64.28;19303.75;5049356;28;20701;-59
2023/02/24 08:48:56;;;;;;;10.50;4.17;;;7.40;99.90;;;-141.84;63.74;19309.84;5051423;28;20327;-53
2023/02/24 08:51:28;;;;;;;9.40;4.00;;;7.40;99.90;;;-141.84;62.32;19315.94;5052453;28;20189;-57
2023/02/24 08:54:00;;;;;;;10.53;3.53;;;7.60;99.90;;;-141.84;62.77;19307.81;5052263;28;20225;-55
2023/02/24 08:56:33;;;;;;;7.40;3.30;;;7.50;99.90;;;-141.84;63.00;19330.16;5052101;28;20236;-54
2023/02/24 08:59:05;;;;;;;8.27;3.10;;;7.60;99.90;;;-141.84;62.10;19317.97;5051755;28;20362;-55
2023/02/24 09:01:36;;;;;;;8.50;3.47;;;7.60;99.90;;;-141.84;61.69;19352.53;5052090;28;20233;-53
2023/02/24 09:04:09;;;;;;;7.87;3.03;;;7.60;99.90;;;-141.84;61.74;19338.28;5051698;28;20759;-58
2023/02/24 09:06:43;;;;;;;8.73;3.60;;;7.60;99.90;;;-141.84;61.24;19358.63;5051967;28;20260;-60
2023/02/24 09:09:21;;;;;;;5.40;3.00;;;7.60;99.90;;;-141.84;61.26;19320.00;5052083;28;20554;-61
2023/02/24 09:11:54;;;;;;;7.23;3.20;;;7.60;99.90;;;-141.84;62.50;19311.88;5052540;28;20192;-58
2023/02/24 09:14:27;;;;;;;8.63;3.40;;;7.50;99.90;;;-141.84;62.24;19313.91;5051555;28;20221;-56
2023/02/24 09:17:05;;;;;;;7.73;2.73;;;7.50;99.90;;;-141.84;62.42;19340.31;5051383;28;20245;-58
2023/02/24 09:20:22;;;;;;;8.93;3.03;;;7.40;99.90;;;-141.84;61.79;19307.81;5042864;28;20237;-59
2023/02/24 09:22:31;;;;;;;6.43;2.97;;;7.50;99.90;;;-141.84;61.37;19338.28;5031652;28;20225;-55
2023/02/24 09:25:24;;;;;;;7.67;3.20;;;7.30;99.90;;;-141.84;62.77;19309.84;5031817;28;20309;-57
2023/02/24 09:27:55;;;;;;;11.67;2.73;;;7.30;99.90;;;-141.84;61.45;19330.16;5031680;28;20232;-57
2023/02/24 09:30:37;;;;;;;6.90;2.77;;;7.40;99.90;;;-141.84;62.61;19326.09;5031757;28;20183;-56
2023/02/24 09:33:16;;;;;;;6.33;3.20;;;7.40;99.90;;;-141.84;63.88;19303.75;5031858;28;20298;-57
2023/02/24 09:35:47;;;;;;;5.90;2.60;;;7.30;99.90;;;-141.84;63.03;19326.09;5031745;28;20232;-58
2023/02/24 09:38:18;;;;;;;8.53;3.63;;;7.30;99.90;;;-141.84;61.44;19340.31;5012544;28;20275;-59
2023/02/24 09:40:49;;;;;;;6.03;3.30;;;7.50;99.90;;;-141.84;62.41;19317.97;5030194;28;20229;-57
2023/02/24 09:43:23;;;;;;;7.13;3.20;;;7.40;99.90;;;-141.84;62.28;19326.09;5031109;28;20225;-58
2023/02/24 09:46:00;;;;;;;8.10;3.40;;;7.40;99.90;;;-141.84;62.72;19311.88;5031119;28;20237;-58
2023/02/24 09:48:43;;;;;;;8.80;3.77;;;7.40;99.90;;;-141.84;62.28;19303.75;5041695;28;20231;-58
2023/02/24 09:51:21;;;;;;;8.23;3.87;;;7.50;99.90;;;-141.84;61.82;19362.69;5051248;28;20197;-56
2023/02/24 09:53:55;;;;;;;6.50;3.67;;;7.50;99.90;;;-141.84;62.28;19303.75;5051520;28;20300;-58
2023/02/24 09:56:41;;;;;;;7.03;3.70;;;7.40;99.90;;;-141.84;62.88;19342.34;5050928;28;20232;-58
2023/02/24 09:59:24;;;;;;;7.50;3.93;;;7.50;99.90;;;-141.84;62.67;19336.25;5050906;28;20347;-55
2023/02/24 10:02:02;;;;;;;9.87;4.03;;;7.40;99.90;;;-141.84;62.99;19330.16;5050610;28;20668;-57
2023/02/24 10:05:06;;;;;;;7.73;4.40;;;7.40;99.90;;;-141.84;62.89;19350.50;5050537;28;20236;-56
2023/02/24 10:07:42;;;;;;;10.97;4.20;;;7.40;99.90;;;-141.84;63.12;19338.28;5019003;28;20232;-56
2023/02/24 10:10:19;;;;;;;8.20;3.80;;;7.50;99.90;;;-141.84;61.82;19354.56;5050731;28;20270;-56
2023/02/24 10:12:58;;;;;;;10.20;3.97;;;7.60;99.90;;;-141.84;61.42;19348.47;5050254;28;20240;-58
2023/02/24 10:18:31;;;;;;;8.67;4.47;;;7.60;99.90;;;-141.84;61.53;19393.16;5040751;28;20689;-59
2023/02/24 10:21:29;;;;;;;10.87;5.20;;;7.90;99.90;;;-141.84;61.04;19450.06;5050747;28;20550;-59
2023/02/24 10:24:13;;;;;;;9.40;4.40;;;8.10;99.90;;;-141.84;60.30;19468.34;5050651;28;20224;-58
2023/02/24 10:26:50;;;;;;;10.30;4.90;;;8.40;99.90;;;-141.84;60.41;19458.19;5050488;28;20560;-60
2023/02/24 10:29:54;;;;;;;12.97;5.13;;;8.50;99.90;;;-141.84;59.74;19484.59;5050123;28;20225;-57
2023/02/24 10:32:40;;;;;;;8.57;5.30;;;8.60;99.90;;;-141.84;60.61;19470.38;5049904;28;20229;-58
2023/02/24 10:35:16;;;;;;;12.40;5.90;;;8.60;99.90;;;-141.84;59.17;19502.91;5049998;28;20232;-55
2023/02/24 10:37:44;;;;;;;9.80;4.87;;;8.60;99.90;;;-141.84;59.58;19488.69;5050381;28;20231;-58
2023/02/24 10:40:25;;;;;;;10.53;5.07;;;8.70;99.90;;;-141.84;59.18;19498.84;5049590;28;20225;-57